sensor_id;sensor_type;location;lat;lon;timestamp;temperature;humidity
5806;DHT22;2929;50.810;8.342;2023-02-15T00:01:08;-0.30;99.90
5806;DHT22;2929;50.810;8.342;2023-02-15T00:03:35;-0.30;99.90
5806;DHT22;2929;50.810;8.342;2023-02-15T00:06:04;-0.30;99.90
5806;DHT22;2929;50.810;8.342;2023-02-15T00:08:32;-0.30;99.90
5806;DHT22;2929;50.810;8.342;2023-02-15T00:11:06;-0.30;99.90
5806;DHT22;2929;50.810;8.342;2023-02-15T00:13:34;-0.30;99.90
5806;DHT22;2929;50.810;8.342;2023-02-15T00:16:02;-0.30;99.90
5806;DHT22;2929;50.810;8.342;2023-02-15T00:18:30;-0.30;99.90
5806;DHT22;2929;50.810;8.342;2023-02-15T00:20:57;-0.30;99.90
5806;DHT22;2929;50.810;8.342;2023-02-15T00:23:26;-0.30;99.90
5806;DHT22;2929;50.810;8.342;2023-02-15T00:26:05;-0.40;99.90
5806;DHT22;2929;50.810;8.342;2023-02-15T00:28:33;-0.50;99.90
5806;DHT22;2929;50.810;8.342;2023-02-15T00:31:04;-0.40;99.90
5806;DHT22;2929;50.810;8.342;2023-02-15T00:33:31;-0.50;99.90
5806;DHT22;2929;50.810;8.342;2023-02-15T00:35:59;-0.50;99.90
5806;DHT22;2929;50.810;8.342;2023-02-15T00:38:27;-0.50;99.90
5806;DHT22;2929;50.810;8.342;2023-02-15T00:40:55;-0.50;99.90
5806;DHT22;2929;50.810;8.342;2023-02-15T00:43:25;-0.60;99.90
5806;DHT22;2929;50.810;8.342;2023-02-15T00:45:52;-0.60;99.90
5806;DHT22;2929;50.810;8.342;2023-02-15T00:48:20;-0.60;99.90
5806;DHT22;2929;50.810;8.342;2023-02-15T00:50:49;-0.60;99.90
5806;DHT22;2929;50.810;8.342;2023-02-15T00:53:18;-0.60;99.90
5806;DHT22;2929;50.810;8.342;2023-02-15T00:55:46;-0.60;99.90
5806;DHT22;2929;50.810;8.342;2023-02-15T00:58:14;-0.60;99.90
5806;DHT22;2929;50.810;8.342;2023-02-15T01:00:44;-0.50;99.90
5806;DHT22;2929;50.810;8.342;2023-02-15T01:03:13;-0.60;99.90
5806;DHT22;2929;50.810;8.342;2023-02-15T01:05:42;-0.60;99.90
5806;DHT22;2929;50.810;8.342;2023-02-15T01:08:09;-0.60;99.90
5806;DHT22;2929;50.810;8.342;2023-02-15T01:10:37;-0.50;99.90
5806;DHT22;2929;50.810;8.342;2023-02-15T01:13:05;-0.50;99.90
5806;DHT22;2929;50.810;8.342;2023-02-15T01:15:34;-0.50;99.90
5806;DHT22;2929;50.810;8.342;2023-02-15T01:18:03;-0.50;99.90
5806;DHT22;2929;50.810;8.342;2023-02-15T01:20:34;-0.50;99.90
5806;DHT22;2929;50.810;8.342;2023-02-15T01:23:02;-0.50;99.90
5806;DHT22;2929;50.810;8.342;2023-02-15T01:25:29;-0.50;99.90
5806;DHT22;2929;50.810;8.342;2023-02-15T01:27:56;-0.50;99.90
5806;DHT22;2929;50.810;8.342;2023-02-15T01:30:23;-0.50;99.90
5806;DHT22;2929;50.810;8.342;2023-02-15T01:32:51;-0.50;99.90
5806;DHT22;2929;50.810;8.342;2023-02-15T01:35:19;-0.60;99.90
5806;DHT22;2929;50.810;8.342;2023-02-15T01:37:46;-0.60;99.90
5806;DHT22;2929;50.810;8.342;2023-02-15T01:40:15;-0.70;99.90
5806;DHT22;2929;50.810;8.342;2023-02-15T01:42:44;-0.60;99.90
5806;DHT22;2929;50.810;8.342;2023-02-15T01:45:19;-0.60;99.90
5806;DHT22;2929;50.810;8.342;2023-02-15T01:47:51;-0.70;99.90
5806;DHT22;2929;50.810;8.342;2023-02-15T01:50:25;-0.70;99.90
5806;DHT22;2929;50.810;8.342;2023-02-15T01:52:57;-0.70;99.90
5806;DHT22;2929;50.810;8.342;2023-02-15T01:55:28;-0.70;99.90
5806;DHT22;2929;50.810;8.342;2023-02-15T01:57:56;-0.80;99.90
5806;DHT22;2929;50.810;8.342;2023-02-15T02:00:23;-0.80;99.90
5806;DHT22;2929;50.810;8.342;2023-02-15T02:02:53;-0.80;99.90
5806;DHT22;2929;50.810;8.342;2023-02-15T02:05:26;-0.70;99.90
5806;DHT22;2929;50.810;8.342;2023-02-15T02:07:56;-0.70;99.90
5806;DHT22;2929;50.810;8.342;2023-02-15T02:10:26;-0.70;99.90
5806;DHT22;2929;50.810;8.342;2023-02-15T02:12:59;-0.70;99.90
5806;DHT22;2929;50.810;8.342;2023-02-15T02:15:31;-0.80;99.90
5806;DHT22;2929;50.810;8.342;2023-02-15T02:18:10;-0.80;99.90
5806;DHT22;2929;50.810;8.342;2023-02-15T02:21:09;-0.80;99.90
5806;DHT22;2929;50.810;8.342;2023-02-15T02:23:56;-0.80;99.90
5806;DHT22;2929;50.810;8.342;2023-02-15T02:35:23;-0.90;99.90
5806;DHT22;2929;50.810;8.342;2023-02-15T02:38:00;-0.80;99.90
5806;DHT22;2929;50.810;8.342;2023-02-15T02:40:38;-0.80;99.90
5806;DHT22;2929;50.810;8.342;2023-02-15T02:43:12;-0.80;99.90
5806;DHT22;2929;50.810;8.342;2023-02-15T02:45:44;-0.80;99.90
5806;DHT22;2929;50.810;8.342;2023-02-15T02:48:15;-0.90;99.90
5806;DHT22;2929;50.810;8.342;2023-02-15T02:50:45;-0.90;99.90
5806;DHT22;2929;50.810;8.342;2023-02-15T02:53:12;-0.80;99.90
5806;DHT22;2929;50.810;8.342;2023-02-15T02:55:42;-0.80;99.90
5806;DHT22;2929;50.810;8.342;2023-02-15T02:58:13;-0.80;99.90
5806;DHT22;2929;50.810;8.342;2023-02-15T03:00:46;-0.80;99.90
5806;DHT22;2929;50.810;8.342;2023-02-15T03:03:18;-0.80;99.90
5806;DHT22;2929;50.810;8.342;2023-02-15T03:05:51;-0.80;99.90
5806;DHT22;2929;50.810;8.342;2023-02-15T03:08:23;-0.80;99.90
5806;DHT22;2929;50.810;8.342;2023-02-15T03:10:55;-0.80;99.90
5806;DHT22;2929;50.810;8.342;2023-02-15T03:13:24;-0.80;99.90
5806;DHT22;2929;50.810;8.342;2023-02-15T03:15:52;-0.80;99.90
5806;DHT22;2929;50.810;8.342;2023-02-15T03:18:44;-0.80;99.90
5806;DHT22;2929;50.810;8.342;2023-02-15T03:21:24;-0.80;99.90
5806;DHT22;2929;50.810;8.342;2023-02-15T03:23:56;-0.80;99.90
5806;DHT22;2929;50.810;8.342;2023-02-15T03:26:25;-0.80;99.90
5806;DHT22;2929;50.810;8.342;2023-02-15T03:28:55;-0.80;99.90
5806;DHT22;2929;50.810;8.342;2023-02-15T03:31:26;-0.80;99.90
5806;DHT22;2929;50.810;8.342;2023-02-15T03:33:59;-0.80;99.90
5806;DHT22;2929;50.810;8.342;2023-02-15T03:36:32;-0.80;99.90
5806;DHT22;2929;50.810;8.342;2023-02-15T03:39:07;-0.90;99.90
5806;DHT22;2929;50.810;8.342;2023-02-15T03:41:40;-0.90;99.90
5806;DHT22;2929;50.810;8.342;2023-02-15T03:44:13;-0.90;99.90
5806;DHT22;2929;50.810;8.342;2023-02-15T03:46:47;-0.90;99.90
5806;DHT22;2929;50.810;8.342;2023-02-15T03:49:18;-0.90;99.90
5806;DHT22;2929;50.810;8.342;2023-02-15T03:51:50;-0.90;99.90
5806;DHT22;2929;50.810;8.342;2023-02-15T03:54:24;-0.80;99.90
5806;DHT22;2929;50.810;8.342;2023-02-15T03:57:16;-0.80;99.90
5806;DHT22;2929;50.810;8.342;2023-02-15T04:00:01;-0.90;99.90
5806;DHT22;2929;50.810;8.342;2023-02-15T04:02:59;-0.80;99.90
5806;DHT22;2929;50.810;8.342;2023-02-15T04:05:29;-0.80;99.90
5806;DHT22;2929;50.810;8.342;2023-02-15T04:07:58;-0.80;99.90
5806;DHT22;2929;50.810;8.342;2023-02-15T04:10:25;-0.80;99.90
5806;DHT22;2929;50.810;8.342;2023-02-15T04:13:09;-0.80;99.90
5806;DHT22;2929;50.810;8.342;2023-02-15T04:15:36;-0.70;99.90
5806;DHT22;2929;50.810;8.342;2023-02-15T04:18:21;-0.80;99.90
5806;DHT22;2929;50.810;8.342;2023-02-15T04:21:06;-0.80;99.90
5806;DHT22;2929;50.810;8.342;2023-02-15T04:23:51;-0.80;99.90
5806;DHT22;2929;50.810;8.342;2023-02-15T04:26:36;-0.70;99.90
5806;DHT22;2929;50.810;8.342;2023-02-15T04:29:03;-0.80;99.90
5806;DHT22;2929;50.810;8.342;2023-02-15T04:31:29;-0.80;99.90
5806;DHT22;2929;50.810;8.342;2023-02-15T04:33:56;-0.80;99.90
5806;DHT22;2929;50.810;8.342;2023-02-15T04:36:23;-0.80;99.90
5806;DHT22;2929;50.810;8.342;2023-02-15T04:38:52;-0.80;99.90
5806;DHT22;2929;50.810;8.342;2023-02-15T04:41:19;-0.80;99.90
5806;DHT22;2929;50.810;8.342;2023-02-15T04:43:45;-0.80;99.90
5806;DHT22;2929;50.810;8.342;2023-02-15T04:46:12;-0.70;99.90
5806;DHT22;2929;50.810;8.342;2023-02-15T04:48:39;-0.80;99.90
5806;DHT22;2929;50.810;8.342;2023-02-15T04:51:07;-0.80;99.90
5806;DHT22;2929;50.810;8.342;2023-02-15T04:53:35;-0.70;99.90
5806;DHT22;2929;50.810;8.342;2023-02-15T04:56:03;-0.80;99.90
5806;DHT22;2929;50.810;8.342;2023-02-15T04:58:30;-0.70;99.90
5806;DHT22;2929;50.810;8.342;2023-02-15T05:00:57;-0.80;99.90
5806;DHT22;2929;50.810;8.342;2023-02-15T05:03:25;-0.80;99.90
5806;DHT22;2929;50.810;8.342;2023-02-15T05:05:52;-0.80;99.90
5806;DHT22;2929;50.810;8.342;2023-02-15T05:08:19;-0.70;99.90
5806;DHT22;2929;50.810;8.342;2023-02-15T05:10:47;-0.80;99.90
5806;DHT22;2929;50.810;8.342;2023-02-15T05:13:16;-0.80;99.90
5806;DHT22;2929;50.810;8.342;2023-02-15T05:15:47;-0.80;99.90
5806;DHT22;2929;50.810;8.342;2023-02-15T05:18:16;-0.90;99.90
5806;DHT22;2929;50.810;8.342;2023-02-15T05:20:44;-0.80;99.90
5806;DHT22;2929;50.810;8.342;2023-02-15T05:23:11;-0.70;99.90
5806;DHT22;2929;50.810;8.342;2023-02-15T05:25:38;-0.70;99.90
5806;DHT22;2929;50.810;8.342;2023-02-15T05:28:26;-0.70;99.90
5806;DHT22;2929;50.810;8.342;2023-02-15T05:31:02;-0.70;99.90
5806;DHT22;2929;50.810;8.342;2023-02-15T05:33:29;-0.70;99.90
5806;DHT22;2929;50.810;8.342;2023-02-15T05:35:56;-0.70;99.90
5806;DHT22;2929;50.810;8.342;2023-02-15T05:38:23;-0.70;99.90
5806;DHT22;2929;50.810;8.342;2023-02-15T05:40:51;-0.70;99.90
5806;DHT22;2929;50.810;8.342;2023-02-15T05:43:18;-0.60;99.90
5806;DHT22;2929;50.810;8.342;2023-02-15T05:45:47;-0.70;99.90
5806;DHT22;2929;50.810;8.342;2023-02-15T05:48:14;-0.70;99.90
5806;DHT22;2929;50.810;8.342;2023-02-15T05:50:41;-0.60;99.90
5806;DHT22;2929;50.810;8.342;2023-02-15T05:53:08;-0.60;99.90
5806;DHT22;2929;50.810;8.342;2023-02-15T05:55:37;-0.70;99.90
5806;DHT22;2929;50.810;8.342;2023-02-15T05:58:05;-0.60;99.90
5806;DHT22;2929;50.810;8.342;2023-02-15T06:00:32;-0.60;99.90
5806;DHT22;2929;50.810;8.342;2023-02-15T06:03:01;-0.50;99.90
5806;DHT22;2929;50.810;8.342;2023-02-15T06:05:28;-0.50;99.90
5806;DHT22;2929;50.810;8.342;2023-02-15T06:07:55;-0.50;99.90
5806;DHT22;2929;50.810;8.342;2023-02-15T06:10:22;-0.50;99.90
5806;DHT22;2929;50.810;8.342;2023-02-15T06:12:49;-0.50;99.90
5806;DHT22;2929;50.810;8.342;2023-02-15T06:15:16;-0.50;99.90
5806;DHT22;2929;50.810;8.342;2023-02-15T06:17:43;-0.60;99.90
5806;DHT22;2929;50.810;8.342;2023-02-15T06:20:12;-0.60;99.90
5806;DHT22;2929;50.810;8.342;2023-02-15T06:22:39;-0.60;99.90
5806;DHT22;2929;50.810;8.342;2023-02-15T06:25:06;-0.50;99.90
5806;DHT22;2929;50.810;8.342;2023-02-15T06:27:35;-0.50;99.90
5806;DHT22;2929;50.810;8.342;2023-02-15T06:30:03;-0.50;99.90
5806;DHT22;2929;50.810;8.342;2023-02-15T06:32:31;-0.50;99.90
5806;DHT22;2929;50.810;8.342;2023-02-15T06:34:58;-0.50;99.90
5806;DHT22;2929;50.810;8.342;2023-02-15T06:37:26;-0.60;99.90
5806;DHT22;2929;50.810;8.342;2023-02-15T06:39:54;-0.60;99.90
5806;DHT22;2929;50.810;8.342;2023-02-15T06:42:21;-0.60;99.90
5806;DHT22;2929;50.810;8.342;2023-02-15T06:44:48;-0.60;99.90
5806;DHT22;2929;50.810;8.342;2023-02-15T06:47:15;-0.50;99.90
5806;DHT22;2929;50.810;8.342;2023-02-15T06:49:42;-0.60;99.90
5806;DHT22;2929;50.810;8.342;2023-02-15T06:52:09;-0.60;99.90
5806;DHT22;2929;50.810;8.342;2023-02-15T06:54:38;-0.60;99.90
5806;DHT22;2929;50.810;8.342;2023-02-15T06:57:05;-0.60;99.90
5806;DHT22;2929;50.810;8.342;2023-02-15T06:59:32;-0.60;99.90
5806;DHT22;2929;50.810;8.342;2023-02-15T07:01:59;-0.60;99.90
5806;DHT22;2929;50.810;8.342;2023-02-15T07:04:25;-0.60;99.90
5806;DHT22;2929;50.810;8.342;2023-02-15T07:06:54;-0.60;99.90
5806;DHT22;2929;50.810;8.342;2023-02-15T07:09:21;-0.60;99.90
5806;DHT22;2929;50.810;8.342;2023-02-15T07:11:49;-0.60;99.90
5806;DHT22;2929;50.810;8.342;2023-02-15T07:14:33;-0.60;99.90
5806;DHT22;2929;50.810;8.342;2023-02-15T07:17:01;-0.60;99.90
5806;DHT22;2929;50.810;8.342;2023-02-15T07:19:27;-0.60;99.90
5806;DHT22;2929;50.810;8.342;2023-02-15T07:21:54;-0.60;99.90
5806;DHT22;2929;50.810;8.342;2023-02-15T07:24:21;-0.60;99.90
5806;DHT22;2929;50.810;8.342;2023-02-15T07:26:50;-0.60;99.90
5806;DHT22;2929;50.810;8.342;2023-02-15T07:29:17;-0.60;99.90
5806;DHT22;2929;50.810;8.342;2023-02-15T07:31:44;-0.60;99.90
5806;DHT22;2929;50.810;8.342;2023-02-15T07:34:11;-0.50;99.90
5806;DHT22;2929;50.810;8.342;2023-02-15T07:36:38;-0.50;99.90
5806;DHT22;2929;50.810;8.342;2023-02-15T07:39:05;-0.50;99.90
5806;DHT22;2929;50.810;8.342;2023-02-15T07:41:32;-0.40;99.90
5806;DHT22;2929;50.810;8.342;2023-02-15T07:44:01;-0.40;99.90
5806;DHT22;2929;50.810;8.342;2023-02-15T07:46:28;-0.30;99.90
5806;DHT22;2929;50.810;8.342;2023-02-15T07:48:55;-0.30;99.90
5806;DHT22;2929;50.810;8.342;2023-02-15T07:51:22;-0.30;99.90
5806;DHT22;2929;50.810;8.342;2023-02-15T07:53:49;-0.30;99.90
5806;DHT22;2929;50.810;8.342;2023-02-15T07:56:17;-0.20;99.90
5806;DHT22;2929;50.810;8.342;2023-02-15T07:58:44;-0.20;99.90
5806;DHT22;2929;50.810;8.342;2023-02-15T08:01:27;-0.30;99.90
5806;DHT22;2929;50.810;8.342;2023-02-15T08:03:54;-0.20;99.90
5806;DHT22;2929;50.810;8.342;2023-02-15T08:06:23;-0.30;99.90
5806;DHT22;2929;50.810;8.342;2023-02-15T08:08:50;-0.20;99.90
5806;DHT22;2929;50.810;8.342;2023-02-15T08:11:19;-0.20;99.90
5806;DHT22;2929;50.810;8.342;2023-02-15T08:13:56;-0.30;99.90
5806;DHT22;2929;50.810;8.342;2023-02-15T08:16:28;-0.20;99.90
5806;DHT22;2929;50.810;8.342;2023-02-15T08:18:56;-0.20;99.90
5806;DHT22;2929;50.810;8.342;2023-02-15T08:21:25;-0.20;99.90
5806;DHT22;2929;50.810;8.342;2023-02-15T08:23:53;-0.20;99.90
5806;DHT22;2929;50.810;8.342;2023-02-15T08:26:20;-0.10;99.90
5806;DHT22;2929;50.810;8.342;2023-02-15T08:28:47;-0.10;99.90
5806;DHT22;2929;50.810;8.342;2023-02-15T08:31:15;-0.10;99.90
5806;DHT22;2929;50.810;8.342;2023-02-15T08:33:44;-0.10;99.90
5806;DHT22;2929;50.810;8.342;2023-02-15T08:36:13;0.00;99.90
5806;DHT22;2929;50.810;8.342;2023-02-15T08:38:41;0.00;99.90
5806;DHT22;2929;50.810;8.342;2023-02-15T08:41:10;0.00;99.90
5806;DHT22;2929;50.810;8.342;2023-02-15T08:43:38;0.10;99.90
5806;DHT22;2929;50.810;8.342;2023-02-15T08:46:06;0.10;99.90
5806;DHT22;2929;50.810;8.342;2023-02-15T08:48:33;0.20;99.90
5806;DHT22;2929;50.810;8.342;2023-02-15T08:51:06;0.10;99.90
5806;DHT22;2929;50.810;8.342;2023-02-15T08:53:33;0.20;99.90
5806;DHT22;2929;50.810;8.342;2023-02-15T08:56:00;0.20;99.90
5806;DHT22;2929;50.810;8.342;2023-02-15T08:58:28;0.20;99.90
5806;DHT22;2929;50.810;8.342;2023-02-15T09:00:56;0.20;99.90
5806;DHT22;2929;50.810;8.342;2023-02-15T09:03:23;0.30;99.90
5806;DHT22;2929;50.810;8.342;2023-02-15T09:05:50;0.20;99.90
5806;DHT22;2929;50.810;8.342;2023-02-15T09:08:19;0.40;99.90
5806;DHT22;2929;50.810;8.342;2023-02-15T09:10:46;0.40;99.90
5806;DHT22;2929;50.810;8.342;2023-02-15T09:13:13;0.40;99.90
5806;DHT22;2929;50.810;8.342;2023-02-15T09:15:40;0.50;99.90
5806;DHT22;2929;50.810;8.342;2023-02-15T09:18:07;0.60;99.90
5806;DHT22;2929;50.810;8.342;2023-02-15T09:20:35;0.60;99.90
5806;DHT22;2929;50.810;8.342;2023-02-15T09:23:03;0.60;99.90
5806;DHT22;2929;50.810;8.342;2023-02-15T09:25:31;0.60;99.90
5806;DHT22;2929;50.810;8.342;2023-02-15T09:28:00;0.60;99.90
5806;DHT22;2929;50.810;8.342;2023-02-15T09:30:27;0.70;99.90
5806;DHT22;2929;50.810;8.342;2023-02-15T09:32:54;0.70;99.90
5806;DHT22;2929;50.810;8.342;2023-02-15T09:35:21;0.80;99.90
5806;DHT22;2929;50.810;8.342;2023-02-15T09:37:48;0.80;99.90
5806;DHT22;2929;50.810;8.342;2023-02-15T09:40:16;0.80;99.90
5806;DHT22;2929;50.810;8.342;2023-02-15T09:42:58;0.90;99.90
5806;DHT22;2929;50.810;8.342;2023-02-15T09:45:49;1.00;99.90
5806;DHT22;2929;50.810;8.342;2023-02-15T09:48:41;1.10;99.90
5806;DHT22;2929;50.810;8.342;2023-02-15T09:51:36;1.10;99.90
5806;DHT22;2929;50.810;8.342;2023-02-15T09:54:29;1.10;99.90
5806;DHT22;2929;50.810;8.342;2023-02-15T09:57:07;1.10;99.90
5806;DHT22;2929;50.810;8.342;2023-02-15T09:59:42;1.10;99.90
5806;DHT22;2929;50.810;8.342;2023-02-15T10:02:24;1.20;99.90
5806;DHT22;2929;50.810;8.342;2023-02-15T10:05:04;1.40;99.90
5806;DHT22;2929;50.810;8.342;2023-02-15T10:07:45;1.40;99.90
5806;DHT22;2929;50.810;8.342;2023-02-15T10:10:22;1.40;99.90
5806;DHT22;2929;50.810;8.342;2023-02-15T10:13:04;1.40;99.90
5806;DHT22;2929;50.810;8.342;2023-02-15T10:15:55;1.40;99.90
5806;DHT22;2929;50.810;8.342;2023-02-15T10:18:44;1.40;99.90
5806;DHT22;2929;50.810;8.342;2023-02-15T10:21:23;1.40;99.90
5806;DHT22;2929;50.810;8.342;2023-02-15T10:24:26;1.40;99.90
5806;DHT22;2929;50.810;8.342;2023-02-15T10:27:02;1.40;99.90
5806;DHT22;2929;50.810;8.342;2023-02-15T10:29:35;1.60;99.90
5806;DHT22;2929;50.810;8.342;2023-02-15T10:32:15;1.60;99.90
5806;DHT22;2929;50.810;8.342;2023-02-15T10:34:47;1.70;99.90
5806;DHT22;2929;50.810;8.342;2023-02-15T10:37:39;1.90;99.90
5806;DHT22;2929;50.810;8.342;2023-02-15T10:40:18;1.90;99.90
5806;DHT22;2929;50.810;8.342;2023-02-15T10:42:56;1.90;99.90
5806;DHT22;2929;50.810;8.342;2023-02-15T10:45:34;1.70;99.90
5806;DHT22;2929;50.810;8.342;2023-02-15T10:48:38;1.80;99.90
5806;DHT22;2929;50.810;8.342;2023-02-15T10:51:13;1.90;99.90
5806;DHT22;2929;50.810;8.342;2023-02-15T10:53:54;2.00;99.90
5806;DHT22;2929;50.810;8.342;2023-02-15T10:56:28;2.00;99.90
5806;DHT22;2929;50.810;8.342;2023-02-15T10:59:20;2.00;99.90
5806;DHT22;2929;50.810;8.342;2023-02-15T11:01:54;2.00;99.90
5806;DHT22;2929;50.810;8.342;2023-02-15T11:04:46;1.90;99.90
5806;DHT22;2929;50.810;8.342;2023-02-15T11:07:17;1.90;99.90
5806;DHT22;2929;50.810;8.342;2023-02-15T11:09:49;1.90;99.90
5806;DHT22;2929;50.810;8.342;2023-02-15T11:12:20;2.00;99.90
5806;DHT22;2929;50.810;8.342;2023-02-15T11:14:51;1.90;99.90
5806;DHT22;2929;50.810;8.342;2023-02-15T11:17:24;2.00;99.90
5806;DHT22;2929;50.810;8.342;2023-02-15T11:19:58;2.00;99.90
5806;DHT22;2929;50.810;8.342;2023-02-15T11:22:29;2.00;99.90
5806;DHT22;2929;50.810;8.342;2023-02-15T11:24:58;2.20;99.90
5806;DHT22;2929;50.810;8.342;2023-02-15T11:27:30;2.30;99.90
5806;DHT22;2929;50.810;8.342;2023-02-15T11:29:59;2.40;99.90
5806;DHT22;2929;50.810;8.342;2023-02-15T11:32:29;2.30;99.90
5806;DHT22;2929;50.810;8.342;2023-02-15T11:35:02;2.40;99.90
5806;DHT22;2929;50.810;8.342;2023-02-15T11:37:35;2.50;99.90
5806;DHT22;2929;50.810;8.342;2023-02-15T11:40:15;2.60;99.90
5806;DHT22;2929;50.810;8.342;2023-02-15T11:42:45;2.80;99.90
5806;DHT22;2929;50.810;8.342;2023-02-15T11:45:21;2.70;99.90
5806;DHT22;2929;50.810;8.342;2023-02-15T11:47:49;2.70;99.90
5806;DHT22;2929;50.810;8.342;2023-02-15T11:50:22;2.80;99.90
5806;DHT22;2929;50.810;8.342;2023-02-15T11:52:49;2.80;99.90
5806;DHT22;2929;50.810;8.342;2023-02-15T11:55:21;2.90;99.90
5806;DHT22;2929;50.810;8.342;2023-02-15T11:57:53;2.90;99.90
5806;DHT22;2929;50.810;8.342;2023-02-15T12:00:29;2.90;99.90
5806;DHT22;2929;50.810;8.342;2023-02-15T12:03:04;3.00;99.90
5806;DHT22;2929;50.810;8.342;2023-02-15T12:05:37;3.00;99.90
5806;DHT22;2929;50.810;8.342;2023-02-15T12:08:12;2.80;99.90
5806;DHT22;2929;50.810;8.342;2023-02-15T12:10:44;2.80;99.90
5806;DHT22;2929;50.810;8.342;2023-02-15T12:13:15;2.90;99.90
5806;DHT22;2929;50.810;8.342;2023-02-15T12:15:45;3.00;99.90
5806;DHT22;2929;50.810;8.342;2023-02-15T12:18:20;3.00;99.90
5806;DHT22;2929;50.810;8.342;2023-02-15T12:20:51;3.10;99.90
5806;DHT22;2929;50.810;8.342;2023-02-15T12:23:19;3.20;99.90
5806;DHT22;2929;50.810;8.342;2023-02-15T12:25:50;3.40;99.90
5806;DHT22;2929;50.810;8.342;2023-02-15T12:28:25;3.30;99.90
5806;DHT22;2929;50.810;8.342;2023-02-15T12:30:54;3.30;99.90
5806;DHT22;2929;50.810;8.342;2023-02-15T12:33:27;3.30;99.90
5806;DHT22;2929;50.810;8.342;2023-02-15T12:36:00;3.30;99.90
5806;DHT22;2929;50.810;8.342;2023-02-15T12:38:28;3.40;99.90
5806;DHT22;2929;50.810;8.342;2023-02-15T12:41:00;3.30;99.90
5806;DHT22;2929;50.810;8.342;2023-02-15T12:43:31;3.40;99.90
5806;DHT22;2929;50.810;8.342;2023-02-15T12:46:23;3.40;99.90
5806;DHT22;2929;50.810;8.342;2023-02-15T12:49:19;3.40;99.90
5806;DHT22;2929;50.810;8.342;2023-02-15T12:51:50;3.60;99.90
5806;DHT22;2929;50.810;8.342;2023-02-15T12:54:30;3.60;99.90
5806;DHT22;2929;50.810;8.342;2023-02-15T12:56:58;3.60;99.90
5806;DHT22;2929;50.810;8.342;2023-02-15T12:59:25;3.50;99.90
5806;DHT22;2929;50.810;8.342;2023-02-15T13:01:52;3.60;99.90
5806;DHT22;2929;50.810;8.342;2023-02-15T13:04:24;3.70;99.90
5806;DHT22;2929;50.810;8.342;2023-02-15T13:06:56;3.70;99.90
5806;DHT22;2929;50.810;8.342;2023-02-15T13:09:34;3.70;99.90
5806;DHT22;2929;50.810;8.342;2023-02-15T13:12:17;3.60;99.90
5806;DHT22;2929;50.810;8.342;2023-02-15T13:14:46;3.60;99.90
5806;DHT22;2929;50.810;8.342;2023-02-15T13:17:16;3.70;99.90
5806;DHT22;2929;50.810;8.342;2023-02-15T13:19:47;3.80;99.90
5806;DHT22;2929;50.810;8.342;2023-02-15T13:22:19;3.70;99.90
5806;DHT22;2929;50.810;8.342;2023-02-15T13:24:50;3.70;99.90
5806;DHT22;2929;50.810;8.342;2023-02-15T13:27:21;3.70;99.90
5806;DHT22;2929;50.810;8.342;2023-02-15T13:29:50;3.80;99.90
5806;DHT22;2929;50.810;8.342;2023-02-15T13:32:26;3.80;99.90
5806;DHT22;2929;50.810;8.342;2023-02-15T13:34:57;4.00;99.90
5806;DHT22;2929;50.810;8.342;2023-02-15T13:37:45;4.00;99.90
5806;DHT22;2929;50.810;8.342;2023-02-15T13:40:18;3.90;99.90
5806;DHT22;2929;50.810;8.342;2023-02-15T13:42:50;3.90;99.90
5806;DHT22;2929;50.810;8.342;2023-02-15T13:45:30;3.80;99.90
5806;DHT22;2929;50.810;8.342;2023-02-15T13:48:08;3.80;99.90
5806;DHT22;2929;50.810;8.342;2023-02-15T13:50:58;3.90;99.90
5806;DHT22;2929;50.810;8.342;2023-02-15T13:53:49;3.90;99.90
5806;DHT22;2929;50.810;8.342;2023-02-15T13:56:28;4.00;99.90
5806;DHT22;2929;50.810;8.342;2023-02-15T13:59:18;4.10;99.90
5806;DHT22;2929;50.810;8.342;2023-02-15T14:01:53;3.90;99.90
5806;DHT22;2929;50.810;8.342;2023-02-15T14:04:43;3.90;99.90
5806;DHT22;2929;50.810;8.342;2023-02-15T14:07:28;3.90;99.90
5806;DHT22;2929;50.810;8.342;2023-02-15T14:10:06;3.80;99.90
5806;DHT22;2929;50.810;8.342;2023-02-15T14:12:50;3.90;99.90
5806;DHT22;2929;50.810;8.342;2023-02-15T14:15:26;3.80;99.90
5806;DHT22;2929;50.810;8.342;2023-02-15T14:18:04;3.60;99.90
5806;DHT22;2929;50.810;8.342;2023-02-15T14:20:45;3.50;99.90
5806;DHT22;2929;50.810;8.342;2023-02-15T14:23:24;3.50;99.90
5806;DHT22;2929;50.810;8.342;2023-02-15T14:25:59;3.50;99.90
5806;DHT22;2929;50.810;8.342;2023-02-15T14:28:31;3.50;99.90
5806;DHT22;2929;50.810;8.342;2023-02-15T14:31:00;3.50;99.90
5806;DHT22;2929;50.810;8.342;2023-02-15T14:33:32;3.50;99.90
5806;DHT22;2929;50.810;8.342;2023-02-15T14:36:01;3.50;99.90
5806;DHT22;2929;50.810;8.342;2023-02-15T14:38:42;3.50;99.90
5806;DHT22;2929;50.810;8.342;2023-02-15T14:41:17;3.60;99.90
5806;DHT22;2929;50.810;8.342;2023-02-15T14:43:49;3.60;99.90
5806;DHT22;2929;50.810;8.342;2023-02-15T14:46:27;3.60;99.90
5806;DHT22;2929;50.810;8.342;2023-02-15T14:48:58;3.60;99.90
5806;DHT22;2929;50.810;8.342;2023-02-15T14:51:56;3.50;99.90
5806;DHT22;2929;50.810;8.342;2023-02-15T14:54:53;3.60;99.90
5806;DHT22;2929;50.810;8.342;2023-02-15T14:57:27;3.50;99.90
5806;DHT22;2929;50.810;8.342;2023-02-15T14:59:57;3.50;99.90
5806;DHT22;2929;50.810;8.342;2023-02-15T15:02:28;3.50;99.90
5806;DHT22;2929;50.810;8.342;2023-02-15T15:05:02;3.70;99.90
5806;DHT22;2929;50.810;8.342;2023-02-15T15:07:40;3.70;99.90
5806;DHT22;2929;50.810;8.342;2023-02-15T15:10:33;3.60;99.90
5806;DHT22;2929;50.810;8.342;2023-02-15T15:13:38;3.60;99.90
5806;DHT22;2929;50.810;8.342;2023-02-15T15:19:10;3.50;99.90
5806;DHT22;2929;50.810;8.342;2023-02-15T15:22:02;3.40;99.90
5806;DHT22;2929;50.810;8.342;2023-02-15T15:24:49;3.40;99.90
5806;DHT22;2929;50.810;8.342;2023-02-15T15:27:40;3.40;99.90
5806;DHT22;2929;50.810;8.342;2023-02-15T15:34:10;3.30;99.90
5806;DHT22;2929;50.810;8.342;2023-02-15T15:40:30;3.10;99.90
5806;DHT22;2929;50.810;8.342;2023-02-15T15:46:35;3.00;99.90
5806;DHT22;2929;50.810;8.342;2023-02-15T15:49:10;2.90;99.90
5806;DHT22;2929;50.810;8.342;2023-02-15T15:51:41;2.80;99.90
5806;DHT22;2929;50.810;8.342;2023-02-15T15:54:14;2.80;99.90
5806;DHT22;2929;50.810;8.342;2023-02-15T15:56:44;2.80;99.90
5806;DHT22;2929;50.810;8.342;2023-02-15T15:59:18;2.80;99.90
5806;DHT22;2929;50.810;8.342;2023-02-15T16:01:47;2.70;99.90
5806;DHT22;2929;50.810;8.342;2023-02-15T16:04:24;2.70;99.90
5806;DHT22;2929;50.810;8.342;2023-02-15T16:06:52;2.70;99.90
5806;DHT22;2929;50.810;8.342;2023-02-15T16:09:21;2.60;99.90
5806;DHT22;2929;50.810;8.342;2023-02-15T16:11:51;2.60;99.90
5806;DHT22;2929;50.810;8.342;2023-02-15T16:14:26;2.50;99.90
5806;DHT22;2929;50.810;8.342;2023-02-15T16:16:57;2.50;99.90
5806;DHT22;2929;50.810;8.342;2023-02-15T16:19:38;2.40;99.90
5806;DHT22;2929;50.810;8.342;2023-02-15T16:22:10;2.40;99.90
5806;DHT22;2929;50.810;8.342;2023-02-15T16:25:02;2.30;99.90
5806;DHT22;2929;50.810;8.342;2023-02-15T16:27:37;2.30;99.90
5806;DHT22;2929;50.810;8.342;2023-02-15T16:30:29;2.30;99.90
5806;DHT22;2929;50.810;8.342;2023-02-15T16:33:05;2.30;99.90
5806;DHT22;2929;50.810;8.342;2023-02-15T16:35:35;2.30;99.90
5806;DHT22;2929;50.810;8.342;2023-02-15T16:38:03;2.20;99.90
5806;DHT22;2929;50.810;8.342;2023-02-15T16:40:45;2.20;99.90
5806;DHT22;2929;50.810;8.342;2023-02-15T16:43:17;2.20;99.90
5806;DHT22;2929;50.810;8.342;2023-02-15T16:45:46;2.20;99.90
5806;DHT22;2929;50.810;8.342;2023-02-15T16:48:17;2.20;99.90
5806;DHT22;2929;50.810;8.342;2023-02-15T16:50:53;2.20;99.90
5806;DHT22;2929;50.810;8.342;2023-02-15T16:53:25;2.10;99.90
5806;DHT22;2929;50.810;8.342;2023-02-15T16:55:54;2.10;99.90
5806;DHT22;2929;50.810;8.342;2023-02-15T16:58:27;2.10;99.90
5806;DHT22;2929;50.810;8.342;2023-02-15T17:01:01;2.10;99.90
5806;DHT22;2929;50.810;8.342;2023-02-15T17:03:29;2.10;99.90
5806;DHT22;2929;50.810;8.342;2023-02-15T17:06:00;2.10;99.90
5806;DHT22;2929;50.810;8.342;2023-02-15T17:08:30;2.00;99.90